powered by Meteolive.it
Dati meteo   Attuali  Passati Ogni 3 ore 7 Giorni 15 Giorni Avvisi Meteo Mappe meteo
Milano / Linate, Italy
Alba: 5:21 AM UTC1
Tramonto: 7:20 PM UTC1
 Lat: 45.42N, Lon: 9.27E
ICAO Usato: LIML
Condizioni Meteo Attuali Aggiornate: 24.04.2017 alle 06:20 LT
Molto Nuvoloso
Molto Nuvoloso
Molto Nuvoloso
N/D
Temp: 13°C
Umidita': 67%
Direz/Vel. Vento: E 06 KTS
Pressione: 1019 hPa
Punto di rugiada: 7°C
Temperatura percepita: 13°C
Visibilitą: N/D
Temperatura percepita in
presenza di vento (Wind Chill)
:
12°C
T. max (ultime 24 ore): 22°C
T. min (ultime 24 ore): 7°C


METAR ORIGINALE
LIML 240220Z 08006KT 010V120 9999 BKN045 13/07 Q1019 NOSIG